sensor_id;sensor_type;location;lat;lon;timestamp;P1;durP1;ratioP1;P2;durP2;ratioP2
20076;SDS011;12348;42.710;23.378;2023-02-15T00:01:22;56.70;;;20.30;;
20076;SDS011;12348;42.710;23.378;2023-02-15T00:03:49;44.90;;;17.90;;
20076;SDS011;12348;42.710;23.378;2023-02-15T00:06:17;49.67;;;21.57;;
20076;SDS011;12348;42.710;23.378;2023-02-15T00:08:44;40.17;;;18.10;;
20076;SDS011;12348;42.710;23.378;2023-02-15T00:11:12;50.30;;;19.17;;
20076;SDS011;12348;42.710;23.378;2023-02-15T00:13:40;26.90;;;11.70;;
20076;SDS011;12348;42.710;23.378;2023-02-15T00:16:09;51.60;;;20.17;;
20076;SDS011;12348;42.710;23.378;2023-02-15T00:18:37;47.63;;;20.23;;
20076;SDS011;12348;42.710;23.378;2023-02-15T00:21:04;54.73;;;20.80;;
20076;SDS011;12348;42.710;23.378;2023-02-15T00:23:35;53.03;;;20.63;;
20076;SDS011;12348;42.710;23.378;2023-02-15T00:26:03;41.17;;;19.90;;
20076;SDS011;12348;42.710;23.378;2023-02-15T00:28:30;50.10;;;22.67;;
20076;SDS011;12348;42.710;23.378;2023-02-15T00:31:02;51.77;;;21.73;;
20076;SDS011;12348;42.710;23.378;2023-02-15T00:33:29;50.03;;;20.80;;
20076;SDS011;12348;42.710;23.378;2023-02-15T00:35:56;52.77;;;21.43;;
20076;SDS011;12348;42.710;23.378;2023-02-15T00:38:23;49.43;;;20.63;;
20076;SDS011;12348;42.710;23.378;2023-02-15T00:40:53;48.40;;;20.67;;
20076;SDS011;12348;42.710;23.378;2023-02-15T00:43:20;40.20;;;19.03;;
20076;SDS011;12348;42.710;23.378;2023-02-15T00:45:47;46.03;;;20.07;;
20076;SDS011;12348;42.710;23.378;2023-02-15T00:48:14;36.73;;;17.50;;
20076;SDS011;12348;42.710;23.378;2023-02-15T00:50:41;44.87;;;19.93;;
20076;SDS011;12348;42.710;23.378;2023-02-15T00:53:10;44.10;;;19.77;;
20076;SDS011;12348;42.710;23.378;2023-02-15T00:55:37;54.87;;;21.27;;
20076;SDS011;12348;42.710;23.378;2023-02-15T00:58:06;48.00;;;20.87;;
20076;SDS011;12348;42.710;23.378;2023-02-15T01:00:33;47.30;;;21.10;;
20076;SDS011;12348;42.710;23.378;2023-02-15T01:03:00;48.07;;;19.90;;
20076;SDS011;12348;42.710;23.378;2023-02-15T01:05:26;59.10;;;22.77;;
20076;SDS011;12348;42.710;23.378;2023-02-15T01:07:54;44.00;;;19.33;;
20076;SDS011;12348;42.710;23.378;2023-02-15T01:10:21;42.67;;;19.60;;
20076;SDS011;12348;42.710;23.378;2023-02-15T01:12:49;42.87;;;19.83;;
20076;SDS011;12348;42.710;23.378;2023-02-15T01:15:18;42.93;;;17.17;;
20076;SDS011;12348;42.710;23.378;2023-02-15T01:17:45;45.30;;;19.70;;
20076;SDS011;12348;42.710;23.378;2023-02-15T01:20:16;44.33;;;19.50;;
20076;SDS011;12348;42.710;23.378;2023-02-15T01:22:43;46.17;;;20.50;;
20076;SDS011;12348;42.710;23.378;2023-02-15T01:25:10;43.13;;;18.33;;
20076;SDS011;12348;42.710;23.378;2023-02-15T01:27:37;47.10;;;21.30;;
20076;SDS011;12348;42.710;23.378;2023-02-15T01:30:04;43.40;;;18.23;;
20076;SDS011;12348;42.710;23.378;2023-02-15T01:32:33;50.50;;;22.00;;
20076;SDS011;12348;42.710;23.378;2023-02-15T01:34:59;46.03;;;17.50;;
20076;SDS011;12348;42.710;23.378;2023-02-15T01:37:26;45.50;;;17.67;;
20076;SDS011;12348;42.710;23.378;2023-02-15T01:39:53;34.47;;;15.77;;
20076;SDS011;12348;42.710;23.378;2023-02-15T01:42:20;52.97;;;20.33;;
20076;SDS011;12348;42.710;23.378;2023-02-15T01:44:49;41.90;;;18.23;;
20076;SDS011;12348;42.710;23.378;2023-02-15T01:47:18;37.27;;;17.57;;
20076;SDS011;12348;42.710;23.378;2023-02-15T01:49:49;37.27;;;17.30;;
20076;SDS011;12348;42.710;23.378;2023-02-15T01:52:24;40.23;;;18.43;;
20076;SDS011;12348;42.710;23.378;2023-02-15T01:54:50;39.27;;;17.40;;
20076;SDS011;12348;42.710;23.378;2023-02-15T01:57:18;40.77;;;19.97;;
20076;SDS011;12348;42.710;23.378;2023-02-15T01:59:49;45.97;;;18.30;;
20076;SDS011;12348;42.710;23.378;2023-02-15T02:02:19;41.37;;;19.53;;
20076;SDS011;12348;42.710;23.378;2023-02-15T02:04:51;39.60;;;17.77;;
20076;SDS011;12348;42.710;23.378;2023-02-15T02:07:21;43.97;;;19.53;;
20076;SDS011;12348;42.710;23.378;2023-02-15T02:09:52;49.47;;;22.63;;
20076;SDS011;12348;42.710;23.378;2023-02-15T02:12:19;46.20;;;19.60;;
20076;SDS011;12348;42.710;23.378;2023-02-15T02:14:48;34.60;;;15.57;;
20076;SDS011;12348;42.710;23.378;2023-02-15T02:17:17;43.27;;;18.63;;
20076;SDS011;12348;42.710;23.378;2023-02-15T02:23:02;38.50;;;19.13;;
20076;SDS011;12348;42.710;23.378;2023-02-15T02:25:48;40.57;;;18.23;;
20076;SDS011;12348;42.710;23.378;2023-02-15T02:28:42;43.47;;;17.57;;
20076;SDS011;12348;42.710;23.378;2023-02-15T02:31:43;39.83;;;16.80;;
20076;SDS011;12348;42.710;23.378;2023-02-15T02:34:39;42.47;;;18.33;;
20076;SDS011;12348;42.710;23.378;2023-02-15T02:37:15;41.07;;;18.83;;
20076;SDS011;12348;42.710;23.378;2023-02-15T02:39:49;37.67;;;15.63;;
20076;SDS011;12348;42.710;23.378;2023-02-15T02:42:22;42.00;;;18.97;;
20076;SDS011;12348;42.710;23.378;2023-02-15T02:44:56;49.40;;;18.50;;
20076;SDS011;12348;42.710;23.378;2023-02-15T02:47:29;42.53;;;18.60;;
20076;SDS011;12348;42.710;23.378;2023-02-15T02:50:03;45.00;;;18.67;;
20076;SDS011;12348;42.710;23.378;2023-02-15T02:52:36;42.47;;;18.73;;
20076;SDS011;12348;42.710;23.378;2023-02-15T02:55:05;47.83;;;16.87;;
20076;SDS011;12348;42.710;23.378;2023-02-15T02:57:35;41.60;;;17.97;;
20076;SDS011;12348;42.710;23.378;2023-02-15T03:00:06;41.67;;;19.50;;
20076;SDS011;12348;42.710;23.378;2023-02-15T03:02:36;41.03;;;16.87;;
20076;SDS011;12348;42.710;23.378;2023-02-15T03:05:10;38.50;;;17.63;;
20076;SDS011;12348;42.710;23.378;2023-02-15T03:07:41;50.33;;;19.60;;
20076;SDS011;12348;42.710;23.378;2023-02-15T03:10:11;44.57;;;17.13;;
20076;SDS011;12348;42.710;23.378;2023-02-15T03:12:39;40.00;;;17.77;;
20076;SDS011;12348;42.710;23.378;2023-02-15T03:15:08;36.33;;;18.30;;
20076;SDS011;12348;42.710;23.378;2023-02-15T03:17:37;44.43;;;18.13;;
20076;SDS011;12348;42.710;23.378;2023-02-15T03:20:10;49.27;;;18.73;;
20076;SDS011;12348;42.710;23.378;2023-02-15T03:22:42;41.77;;;17.03;;
20076;SDS011;12348;42.710;23.378;2023-02-15T03:25:15;35.97;;;17.17;;
20076;SDS011;12348;42.710;23.378;2023-02-15T03:27:45;39.30;;;18.17;;
20076;SDS011;12348;42.710;23.378;2023-02-15T03:30:16;39.60;;;17.47;;
20076;SDS011;12348;42.710;23.378;2023-02-15T03:32:47;41.27;;;16.87;;
20076;SDS011;12348;42.710;23.378;2023-02-15T03:35:17;35.03;;;15.90;;
20076;SDS011;12348;42.710;23.378;2023-02-15T03:37:49;37.70;;;18.00;;
20076;SDS011;12348;42.710;23.378;2023-02-15T03:40:21;36.93;;;16.73;;
20076;SDS011;12348;42.710;23.378;2023-02-15T03:43:11;39.00;;;16.43;;
20076;SDS011;12348;42.710;23.378;2023-02-15T03:45:44;42.40;;;17.13;;
20076;SDS011;12348;42.710;23.378;2023-02-15T03:48:21;34.13;;;17.00;;
20076;SDS011;12348;42.710;23.378;2023-02-15T03:50:53;37.30;;;16.20;;
20076;SDS011;12348;42.710;23.378;2023-02-15T03:53:40;25.13;;;14.20;;
20076;SDS011;12348;42.710;23.378;2023-02-15T03:56:09;33.87;;;15.33;;
20076;SDS011;12348;42.710;23.378;2023-02-15T03:58:36;28.77;;;14.53;;
20076;SDS011;12348;42.710;23.378;2023-02-15T04:01:22;39.40;;;17.10;;
20076;SDS011;12348;42.710;23.378;2023-02-15T04:04:10;48.33;;;16.70;;
20076;SDS011;12348;42.710;23.378;2023-02-15T04:06:46;39.50;;;16.70;;
20076;SDS011;12348;42.710;23.378;2023-02-15T04:09:14;40.47;;;18.50;;
20076;SDS011;12348;42.710;23.378;2023-02-15T04:12:10;39.70;;;18.27;;
20076;SDS011;12348;42.710;23.378;2023-02-15T04:14:37;38.23;;;16.93;;
20076;SDS011;12348;42.710;23.378;2023-02-15T04:17:21;38.40;;;16.90;;
20076;SDS011;12348;42.710;23.378;2023-02-15T04:19:48;33.33;;;16.30;;
20076;SDS011;12348;42.710;23.378;2023-02-15T04:22:33;43.43;;;19.00;;
20076;SDS011;12348;42.710;23.378;2023-02-15T04:25:18;41.03;;;18.70;;
20076;SDS011;12348;42.710;23.378;2023-02-15T04:27:45;42.27;;;20.73;;
20076;SDS011;12348;42.710;23.378;2023-02-15T04:30:14;37.57;;;16.30;;
20076;SDS011;12348;42.710;23.378;2023-02-15T04:32:43;41.07;;;19.67;;
20076;SDS011;12348;42.710;23.378;2023-02-15T04:35:10;40.27;;;17.77;;
20076;SDS011;12348;42.710;23.378;2023-02-15T04:37:39;40.83;;;18.53;;
20076;SDS011;12348;42.710;23.378;2023-02-15T04:40:07;40.80;;;18.40;;
20076;SDS011;12348;42.710;23.378;2023-02-15T04:42:35;35.43;;;16.47;;
20076;SDS011;12348;42.710;23.378;2023-02-15T04:45:02;38.33;;;17.73;;
20076;SDS011;12348;42.710;23.378;2023-02-15T04:47:30;41.93;;;18.33;;
20076;SDS011;12348;42.710;23.378;2023-02-15T04:49:57;50.57;;;20.53;;
20076;SDS011;12348;42.710;23.378;2023-02-15T04:52:24;41.87;;;18.83;;
20076;SDS011;12348;42.710;23.378;2023-02-15T04:54:52;39.67;;;17.90;;
20076;SDS011;12348;42.710;23.378;2023-02-15T04:57:19;51.37;;;21.57;;
20076;SDS011;12348;42.710;23.378;2023-02-15T04:59:46;40.97;;;19.10;;
20076;SDS011;12348;42.710;23.378;2023-02-15T05:02:12;46.77;;;19.63;;
20076;SDS011;12348;42.710;23.378;2023-02-15T05:04:39;38.10;;;18.60;;
20076;SDS011;12348;42.710;23.378;2023-02-15T05:07:06;46.83;;;19.93;;
20076;SDS011;12348;42.710;23.378;2023-02-15T05:09:33;55.50;;;22.37;;
20076;SDS011;12348;42.710;23.378;2023-02-15T05:12:01;44.00;;;21.13;;
20076;SDS011;12348;42.710;23.378;2023-02-15T05:14:28;48.60;;;21.67;;
20076;SDS011;12348;42.710;23.378;2023-02-15T05:16:55;48.30;;;21.43;;
20076;SDS011;12348;42.710;23.378;2023-02-15T05:19:25;47.73;;;20.57;;
20076;SDS011;12348;42.710;23.378;2023-02-15T05:21:52;46.50;;;21.37;;
20076;SDS011;12348;42.710;23.378;2023-02-15T05:24:19;51.63;;;23.23;;
20076;SDS011;12348;42.710;23.378;2023-02-15T05:27:04;48.97;;;20.73;;
20076;SDS011;12348;42.710;23.378;2023-02-15T05:29:49;49.30;;;21.00;;
20076;SDS011;12348;42.710;23.378;2023-02-15T05:32:16;41.80;;;19.33;;
20076;SDS011;12348;42.710;23.378;2023-02-15T05:34:43;49.87;;;21.97;;
20076;SDS011;12348;42.710;23.378;2023-02-15T05:37:09;43.93;;;21.13;;
20076;SDS011;12348;42.710;23.378;2023-02-15T05:39:36;41.23;;;18.73;;
20076;SDS011;12348;42.710;23.378;2023-02-15T05:42:05;43.27;;;18.67;;
20076;SDS011;12348;42.710;23.378;2023-02-15T05:44:32;39.60;;;16.83;;
20076;SDS011;12348;42.710;23.378;2023-02-15T05:46:59;45.83;;;18.70;;
20076;SDS011;12348;42.710;23.378;2023-02-15T05:49:27;48.77;;;20.63;;
20076;SDS011;12348;42.710;23.378;2023-02-15T05:51:55;52.83;;;23.00;;
20076;SDS011;12348;42.710;23.378;2023-02-15T05:54:22;51.27;;;20.37;;
20076;SDS011;12348;42.710;23.378;2023-02-15T05:56:49;43.47;;;20.40;;
20076;SDS011;12348;42.710;23.378;2023-02-15T05:59:17;55.03;;;22.53;;
20076;SDS011;12348;42.710;23.378;2023-02-15T06:01:44;42.33;;;20.57;;
20076;SDS011;12348;42.710;23.378;2023-02-15T06:04:10;45.33;;;21.97;;
20076;SDS011;12348;42.710;23.378;2023-02-15T06:06:37;43.50;;;20.67;;
20076;SDS011;12348;42.710;23.378;2023-02-15T06:09:04;50.97;;;21.73;;
20076;SDS011;12348;42.710;23.378;2023-02-15T06:11:30;44.17;;;19.47;;
20076;SDS011;12348;42.710;23.378;2023-02-15T06:13:57;38.90;;;18.30;;
20076;SDS011;12348;42.710;23.378;2023-02-15T06:16:25;46.03;;;20.13;;
20076;SDS011;12348;42.710;23.378;2023-02-15T06:18:52;35.63;;;17.47;;
20076;SDS011;12348;42.710;23.378;2023-02-15T06:21:19;36.63;;;18.83;;
20076;SDS011;12348;42.710;23.378;2023-02-15T06:23:46;49.67;;;23.63;;
20076;SDS011;12348;42.710;23.378;2023-02-15T06:26:12;40.83;;;18.07;;
20076;SDS011;12348;42.710;23.378;2023-02-15T06:28:39;35.87;;;17.80;;
20076;SDS011;12348;42.710;23.378;2023-02-15T06:31:07;35.90;;;18.53;;
20076;SDS011;12348;42.710;23.378;2023-02-15T06:33:35;35.83;;;17.40;;
20076;SDS011;12348;42.710;23.378;2023-02-15T06:36:02;35.90;;;20.43;;
20076;SDS011;12348;42.710;23.378;2023-02-15T06:38:29;37.20;;;18.57;;
20076;SDS011;12348;42.710;23.378;2023-02-15T06:40:57;42.50;;;20.03;;
20076;SDS011;12348;42.710;23.378;2023-02-15T06:43:23;38.80;;;18.57;;
20076;SDS011;12348;42.710;23.378;2023-02-15T06:45:50;42.77;;;19.23;;
20076;SDS011;12348;42.710;23.378;2023-02-15T06:48:17;37.13;;;18.50;;
20076;SDS011;12348;42.710;23.378;2023-02-15T06:50:45;30.77;;;16.97;;
20076;SDS011;12348;42.710;23.378;2023-02-15T06:53:12;34.97;;;18.27;;
20076;SDS011;12348;42.710;23.378;2023-02-15T06:55:39;37.87;;;18.23;;
20076;SDS011;12348;42.710;23.378;2023-02-15T06:58:05;35.77;;;19.17;;
20076;SDS011;12348;42.710;23.378;2023-02-15T07:00:32;40.17;;;18.47;;
20076;SDS011;12348;42.710;23.378;2023-02-15T07:02:59;43.07;;;18.30;;
20076;SDS011;12348;42.710;23.378;2023-02-15T07:05:28;42.53;;;18.17;;
20076;SDS011;12348;42.710;23.378;2023-02-15T07:07:57;37.43;;;18.23;;
20076;SDS011;12348;42.710;23.378;2023-02-15T07:10:25;40.70;;;20.10;;
20076;SDS011;12348;42.710;23.378;2023-02-15T07:12:52;39.77;;;17.53;;
20076;SDS011;12348;42.710;23.378;2023-02-15T07:15:18;38.27;;;18.27;;
20076;SDS011;12348;42.710;23.378;2023-02-15T07:17:47;47.97;;;20.20;;
20076;SDS011;12348;42.710;23.378;2023-02-15T07:20:17;41.70;;;19.67;;
20076;SDS011;12348;42.710;23.378;2023-02-15T07:22:46;36.03;;;18.20;;
20076;SDS011;12348;42.710;23.378;2023-02-15T07:25:14;41.27;;;18.00;;
20076;SDS011;12348;42.710;23.378;2023-02-15T07:27:41;40.63;;;18.93;;
20076;SDS011;12348;42.710;23.378;2023-02-15T07:30:09;45.03;;;21.40;;
20076;SDS011;12348;42.710;23.378;2023-02-15T07:32:39;38.67;;;19.20;;
20076;SDS011;12348;42.710;23.378;2023-02-15T07:35:26;38.63;;;19.50;;
20076;SDS011;12348;42.710;23.378;2023-02-15T07:37:53;42.57;;;18.50;;
20076;SDS011;12348;42.710;23.378;2023-02-15T07:40:22;42.80;;;19.33;;
20076;SDS011;12348;42.710;23.378;2023-02-15T07:42:49;38.80;;;17.53;;
20076;SDS011;12348;42.710;23.378;2023-02-15T07:45:18;33.20;;;16.30;;
20076;SDS011;12348;42.710;23.378;2023-02-15T08:12:06;33.60;;;17.40;;
20076;SDS011;12348;42.710;23.378;2023-02-15T08:14:33;27.63;;;15.20;;
20076;SDS011;12348;42.710;23.378;2023-02-15T08:17:00;32.50;;;17.03;;
20076;SDS011;12348;42.710;23.378;2023-02-15T08:19:28;32.87;;;15.03;;
20076;SDS011;12348;42.710;23.378;2023-02-15T08:21:57;29.50;;;15.13;;
20076;SDS011;12348;42.710;23.378;2023-02-15T08:24:25;31.60;;;15.07;;
20076;SDS011;12348;42.710;23.378;2023-02-15T08:26:53;33.87;;;16.50;;
20076;SDS011;12348;42.710;23.378;2023-02-15T08:29:23;27.27;;;14.63;;
20076;SDS011;12348;42.710;23.378;2023-02-15T08:31:52;30.00;;;14.70;;
20076;SDS011;12348;42.710;23.378;2023-02-15T08:34:20;35.37;;;14.77;;
20076;SDS011;12348;42.710;23.378;2023-02-15T08:36:47;28.03;;;14.97;;
20076;SDS011;12348;42.710;23.378;2023-02-15T08:39:14;31.03;;;13.97;;
20076;SDS011;12348;42.710;23.378;2023-02-15T08:41:42;29.40;;;15.10;;
20076;SDS011;12348;42.710;23.378;2023-02-15T08:44:10;32.67;;;16.63;;
20076;SDS011;12348;42.710;23.378;2023-02-15T08:46:39;33.07;;;15.33;;
20076;SDS011;12348;42.710;23.378;2023-02-15T08:49:07;26.33;;;14.07;;
20076;SDS011;12348;42.710;23.378;2023-02-15T08:51:35;28.23;;;15.10;;
20076;SDS011;12348;42.710;23.378;2023-02-15T08:54:03;30.43;;;16.20;;
20076;SDS011;12348;42.710;23.378;2023-02-15T08:56:32;28.93;;;14.87;;
20076;SDS011;12348;42.710;23.378;2023-02-15T08:59:00;30.27;;;15.33;;
20076;SDS011;12348;42.710;23.378;2023-02-15T09:01:28;32.57;;;15.77;;
20076;SDS011;12348;42.710;23.378;2023-02-15T09:03:57;31.03;;;15.00;;
20076;SDS011;12348;42.710;23.378;2023-02-15T09:06:26;35.83;;;16.83;;
20076;SDS011;12348;42.710;23.378;2023-02-15T09:08:54;36.30;;;16.00;;
20076;SDS011;12348;42.710;23.378;2023-02-15T09:11:22;31.63;;;16.63;;
20076;SDS011;12348;42.710;23.378;2023-02-15T09:13:51;29.80;;;15.53;;
20076;SDS011;12348;42.710;23.378;2023-02-15T09:16:21;34.07;;;15.97;;
20076;SDS011;12348;42.710;23.378;2023-02-15T09:18:49;36.60;;;15.87;;
20076;SDS011;12348;42.710;23.378;2023-02-15T09:21:18;30.37;;;16.07;;
20076;SDS011;12348;42.710;23.378;2023-02-15T09:23:47;28.43;;;14.50;;
20076;SDS011;12348;42.710;23.378;2023-02-15T09:26:15;26.47;;;13.60;;
20076;SDS011;12348;42.710;23.378;2023-02-15T09:28:43;26.77;;;13.93;;
20076;SDS011;12348;42.710;23.378;2023-02-15T09:31:11;32.73;;;15.20;;
20076;SDS011;12348;42.710;23.378;2023-02-15T09:33:40;27.70;;;14.60;;
20076;SDS011;12348;42.710;23.378;2023-02-15T09:36:14;22.90;;;13.10;;
20076;SDS011;12348;42.710;23.378;2023-02-15T09:38:43;23.47;;;12.37;;
20076;SDS011;12348;42.710;23.378;2023-02-15T09:41:18;25.77;;;14.13;;
20076;SDS011;12348;42.710;23.378;2023-02-15T09:43:57;19.43;;;11.10;;
20076;SDS011;12348;42.710;23.378;2023-02-15T09:46:40;23.57;;;12.13;;
20076;SDS011;12348;42.710;23.378;2023-02-15T09:49:21;24.27;;;12.63;;
20076;SDS011;12348;42.710;23.378;2023-02-15T09:54:59;26.10;;;11.90;;
20076;SDS011;12348;42.710;23.378;2023-02-15T09:57:42;26.33;;;12.03;;
20076;SDS011;12348;42.710;23.378;2023-02-15T10:00:16;25.80;;;13.53;;
20076;SDS011;12348;42.710;23.378;2023-02-15T10:02:58;22.47;;;12.30;;
20076;SDS011;12348;42.710;23.378;2023-02-15T10:05:38;25.63;;;13.50;;
20076;SDS011;12348;42.710;23.378;2023-02-15T10:08:24;24.57;;;12.67;;
20076;SDS011;12348;42.710;23.378;2023-02-15T10:11:26;22.73;;;12.73;;
20076;SDS011;12348;42.710;23.378;2023-02-15T10:14:11;24.67;;;13.67;;
20076;SDS011;12348;42.710;23.378;2023-02-15T10:16:49;25.53;;;13.13;;
20076;SDS011;12348;42.710;23.378;2023-02-15T10:19:25;29.07;;;13.93;;
20076;SDS011;12348;42.710;23.378;2023-02-15T10:22:04;25.67;;;14.37;;
20076;SDS011;12348;42.710;23.378;2023-02-15T10:24:43;26.13;;;12.73;;
20076;SDS011;12348;42.710;23.378;2023-02-15T10:27:22;27.57;;;13.20;;
20076;SDS011;12348;42.710;23.378;2023-02-15T10:29:52;22.80;;;12.53;;
20076;SDS011;12348;42.710;23.378;2023-02-15T10:32:28;24.10;;;13.67;;
20076;SDS011;12348;42.710;23.378;2023-02-15T10:35:03;27.87;;;13.87;;
20076;SDS011;12348;42.710;23.378;2023-02-15T10:37:44;27.00;;;14.37;;
20076;SDS011;12348;42.710;23.378;2023-02-15T10:40:20;24.83;;;12.90;;
20076;SDS011;12348;42.710;23.378;2023-02-15T10:43:06;22.87;;;14.17;;
20076;SDS011;12348;42.710;23.378;2023-02-15T10:45:49;28.27;;;12.40;;
20076;SDS011;12348;42.710;23.378;2023-02-15T10:48:26;22.97;;;12.93;;
20076;SDS011;12348;42.710;23.378;2023-02-15T10:51:24;23.90;;;13.80;;
20076;SDS011;12348;42.710;23.378;2023-02-15T10:54:05;22.97;;;12.63;;
20076;SDS011;12348;42.710;23.378;2023-02-15T10:56:42;24.23;;;14.43;;
20076;SDS011;12348;42.710;23.378;2023-02-15T10:59:25;25.70;;;14.00;;
20076;SDS011;12348;42.710;23.378;2023-02-15T11:02:07;25.10;;;15.37;;
20076;SDS011;12348;42.710;23.378;2023-02-15T11:04:48;30.57;;;15.50;;
20076;SDS011;12348;42.710;23.378;2023-02-15T11:07:22;22.53;;;13.20;;
20076;SDS011;12348;42.710;23.378;2023-02-15T11:09:52;25.17;;;13.53;;
20076;SDS011;12348;42.710;23.378;2023-02-15T11:12:27;25.03;;;13.90;;
20076;SDS011;12348;42.710;23.378;2023-02-15T11:15:00;26.83;;;13.07;;
20076;SDS011;12348;42.710;23.378;2023-02-15T11:17:33;22.30;;;12.83;;
20076;SDS011;12348;42.710;23.378;2023-02-15T11:20:07;27.23;;;14.20;;
20076;SDS011;12348;42.710;23.378;2023-02-15T11:22:43;27.43;;;15.70;;
20076;SDS011;12348;42.710;23.378;2023-02-15T11:25:15;29.43;;;15.33;;
20076;SDS011;12348;42.710;23.378;2023-02-15T11:27:45;33.27;;;15.73;;
20076;SDS011;12348;42.710;23.378;2023-02-15T11:32:47;25.90;;;12.80;;
20076;SDS011;12348;42.710;23.378;2023-02-15T11:35:20;30.30;;;15.53;;
20076;SDS011;12348;42.710;23.378;2023-02-15T11:37:53;32.53;;;16.50;;
20076;SDS011;12348;42.710;23.378;2023-02-15T11:40:25;26.90;;;15.90;;
20076;SDS011;12348;42.710;23.378;2023-02-15T11:42:56;24.97;;;13.93;;
20076;SDS011;12348;42.710;23.378;2023-02-15T11:45:27;30.37;;;15.70;;
20076;SDS011;12348;42.710;23.378;2023-02-15T11:47:55;29.07;;;13.67;;
20076;SDS011;12348;42.710;23.378;2023-02-15T11:50:23;30.03;;;15.03;;
20076;SDS011;12348;42.710;23.378;2023-02-15T11:52:52;29.20;;;15.63;;
20076;SDS011;12348;42.710;23.378;2023-02-15T11:55:22;33.10;;;14.97;;
20076;SDS011;12348;42.710;23.378;2023-02-15T11:57:51;28.27;;;15.90;;
20076;SDS011;12348;42.710;23.378;2023-02-15T12:00:25;33.03;;;16.37;;
20076;SDS011;12348;42.710;23.378;2023-02-15T12:03:02;28.30;;;15.37;;
20076;SDS011;12348;42.710;23.378;2023-02-15T12:05:35;23.87;;;14.00;;
20076;SDS011;12348;42.710;23.378;2023-02-15T12:08:09;25.63;;;14.17;;
20076;SDS011;12348;42.710;23.378;2023-02-15T12:10:42;27.33;;;13.53;;
20076;SDS011;12348;42.710;23.378;2023-02-15T12:13:19;25.10;;;14.63;;
20076;SDS011;12348;42.710;23.378;2023-02-15T12:15:49;27.37;;;14.43;;
20076;SDS011;12348;42.710;23.378;2023-02-15T12:18:19;22.30;;;13.40;;
20076;SDS011;12348;42.710;23.378;2023-02-15T12:20:52;26.07;;;13.17;;
20076;SDS011;12348;42.710;23.378;2023-02-15T12:23:19;25.53;;;14.77;;
20076;SDS011;12348;42.710;23.378;2023-02-15T12:25:49;29.73;;;15.43;;
20076;SDS011;12348;42.710;23.378;2023-02-15T12:28:23;27.97;;;15.00;;
20076;SDS011;12348;42.710;23.378;2023-02-15T12:30:55;30.47;;;15.67;;
20076;SDS011;12348;42.710;23.378;2023-02-15T12:33:25;26.23;;;14.90;;
20076;SDS011;12348;42.710;23.378;2023-02-15T12:35:56;28.97;;;15.57;;
20076;SDS011;12348;42.710;23.378;2023-02-15T12:38:25;26.43;;;14.87;;
20076;SDS011;12348;42.710;23.378;2023-02-15T12:40:57;30.37;;;16.37;;
20076;SDS011;12348;42.710;23.378;2023-02-15T12:43:31;43.13;;;21.63;;
20076;SDS011;12348;42.710;23.378;2023-02-15T12:46:20;27.53;;;15.70;;
20076;SDS011;12348;42.710;23.378;2023-02-15T12:49:04;28.33;;;15.13;;
20076;SDS011;12348;42.710;23.378;2023-02-15T12:51:43;35.17;;;15.43;;
20076;SDS011;12348;42.710;23.378;2023-02-15T12:54:34;23.57;;;13.30;;
20076;SDS011;12348;42.710;23.378;2023-02-15T12:57:23;32.77;;;15.40;;
20076;SDS011;12348;42.710;23.378;2023-02-15T12:59:53;29.43;;;13.57;;
20076;SDS011;12348;42.710;23.378;2023-02-15T13:02:25;29.87;;;14.40;;
20076;SDS011;12348;42.710;23.378;2023-02-15T13:04:54;28.80;;;15.40;;
20076;SDS011;12348;42.710;23.378;2023-02-15T13:07:24;27.03;;;14.70;;
20076;SDS011;12348;42.710;23.378;2023-02-15T13:09:56;27.57;;;14.90;;
20076;SDS011;12348;42.710;23.378;2023-02-15T13:12:24;31.27;;;15.50;;
20076;SDS011;12348;42.710;23.378;2023-02-15T13:14:55;23.80;;;13.83;;
20076;SDS011;12348;42.710;23.378;2023-02-15T13:17:26;26.30;;;14.33;;
20076;SDS011;12348;42.710;23.378;2023-02-15T13:19:56;29.23;;;15.13;;
20076;SDS011;12348;42.710;23.378;2023-02-15T13:22:28;34.23;;;16.23;;
20076;SDS011;12348;42.710;23.378;2023-02-15T13:25:03;33.27;;;16.20;;
20076;SDS011;12348;42.710;23.378;2023-02-15T13:27:37;24.43;;;14.40;;
20076;SDS011;12348;42.710;23.378;2023-02-15T13:30:10;25.80;;;14.70;;
20076;SDS011;12348;42.710;23.378;2023-02-15T13:32:51;26.07;;;14.87;;
20076;SDS011;12348;42.710;23.378;2023-02-15T13:35:20;24.70;;;12.83;;
20076;SDS011;12348;42.710;23.378;2023-02-15T13:40:48;29.73;;;15.97;;
20076;SDS011;12348;42.710;23.378;2023-02-15T13:43:25;20.17;;;11.07;;
20076;SDS011;12348;42.710;23.378;2023-02-15T13:46:06;27.27;;;13.50;;
20076;SDS011;12348;42.710;23.378;2023-02-15T13:48:44;26.07;;;14.33;;
20076;SDS011;12348;42.710;23.378;2023-02-15T13:51:21;25.07;;;13.10;;
20076;SDS011;12348;42.710;23.378;2023-02-15T13:56:54;24.37;;;13.70;;
20076;SDS011;12348;42.710;23.378;2023-02-15T13:59:45;22.43;;;12.23;;
20076;SDS011;12348;42.710;23.378;2023-02-15T14:05:46;27.40;;;14.87;;
20076;SDS011;12348;42.710;23.378;2023-02-15T14:08:26;30.17;;;14.80;;
20076;SDS011;12348;42.710;23.378;2023-02-15T14:11:05;29.00;;;13.43;;
20076;SDS011;12348;42.710;23.378;2023-02-15T14:16:37;25.37;;;13.83;;
20076;SDS011;12348;42.710;23.378;2023-02-15T14:19:14;34.13;;;15.40;;
20076;SDS011;12348;42.710;23.378;2023-02-15T14:21:48;23.33;;;13.10;;
20076;SDS011;12348;42.710;23.378;2023-02-15T14:24:26;27.93;;;15.30;;
20076;SDS011;12348;42.710;23.378;2023-02-15T14:26:59;29.40;;;14.30;;
20076;SDS011;12348;42.710;23.378;2023-02-15T14:29:41;27.33;;;14.97;;
20076;SDS011;12348;42.710;23.378;2023-02-15T14:32:16;25.10;;;13.13;;
20076;SDS011;12348;42.710;23.378;2023-02-15T14:34:48;33.37;;;15.30;;
20076;SDS011;12348;42.710;23.378;2023-02-15T14:37:21;27.00;;;14.93;;
20076;SDS011;12348;42.710;23.378;2023-02-15T14:39:57;34.40;;;16.03;;
20076;SDS011;12348;42.710;23.378;2023-02-15T14:42:48;35.03;;;15.47;;
20076;SDS011;12348;42.710;23.378;2023-02-15T14:45:25;32.97;;;15.50;;
20076;SDS011;12348;42.710;23.378;2023-02-15T14:47:59;29.07;;;15.17;;
20076;SDS011;12348;42.710;23.378;2023-02-15T14:50:44;27.97;;;13.70;;
20076;SDS011;12348;42.710;23.378;2023-02-15T14:53:35;28.87;;;14.80;;
20076;SDS011;12348;42.710;23.378;2023-02-15T14:56:17;33.27;;;15.00;;
20076;SDS011;12348;42.710;23.378;2023-02-15T15:01:40;27.20;;;13.70;;
20076;SDS011;12348;42.710;23.378;2023-02-15T15:04:08;29.53;;;14.10;;
20076;SDS011;12348;42.710;23.378;2023-02-15T15:06:37;29.17;;;14.23;;
20076;SDS011;12348;42.710;23.378;2023-02-15T15:09:12;28.17;;;14.53;;
20076;SDS011;12348;42.710;23.378;2023-02-15T15:11:41;30.50;;;15.00;;
20076;SDS011;12348;42.710;23.378;2023-02-15T15:14:15;32.27;;;16.60;;
20076;SDS011;12348;42.710;23.378;2023-02-15T15:17:05;29.67;;;16.50;;
20076;SDS011;12348;42.710;23.378;2023-02-15T15:22:39;32.40;;;15.60;;
20076;SDS011;12348;42.710;23.378;2023-02-15T15:25:10;37.27;;;16.73;;
20076;SDS011;12348;42.710;23.378;2023-02-15T15:27:58;33.77;;;16.03;;